Huvudsida
METAR-TAF:

METAR-TAF

Flygplatser :

Pärnu flygplats

Pärnu, Estland

latitud: 58-25-09N, longitud: 024-28-22E, höjd: 14 m

Aktuellt väderrapport

Denna rapport gjordes för 1 timme och 0 minuter sedan, klockan 06:50 UTC
Vind 8 kt från syd, varierande mellan syd/sydost och sydväst
Temperatur 11°C
Fuktighet 100%
Tryck 1017 hPa
Sikt: 2700 m
Mulet på en höjd av 400 ft
fuktdis

METAR: EEPU 180650Z 19008KT 160V220 2700 BR OVC004 11/11 Q1017

Tid: 10:50 (07:50 UTC)


TAF: saknas

Aktuella väderrapporter och prognoser från 4000 flygplatser (METAR- och TAF-rapporter).

De tillgängliga stationerna syns som gula och röda prickar på kartan.

För musen över prickarna för att se namnen på stationerna.

Klicka sedan för att få väderrapporter och prognoser.

För att ändra kartan: Klicka på de gröna knapparna med ett svart kors på för att zooma in; den gröna knappen med ett streck på för att zooma ut; eller på de gröna pilarna för angränsande kartor.


METAR-TAF: